createdAt,value
2024-03-28T00:00:14.808Z,62.53
2024-03-28T00:01:14.903Z,62.93
2024-03-28T00:02:14.941Z,62.44
2024-03-28T00:03:15.015Z,62.11
2024-03-28T00:04:15.064Z,62.29
2024-03-28T00:05:15.079Z,61.44
2024-03-28T00:06:15.125Z,61.06
2024-03-28T00:07:15.209Z,61.52
2024-03-28T00:08:15.200Z,64.93
2024-03-28T00:09:15.223Z,64.24
2024-03-28T00:10:15.292Z,63.94
2024-03-28T00:11:15.279Z,63.80
2024-03-28T00:12:15.326Z,63.91
2024-03-28T00:13:15.373Z,63.85
2024-03-28T00:14:15.402Z,63.66
2024-03-28T00:15:15.444Z,64.00
2024-03-28T00:16:15.490Z,63.39
2024-03-28T00:17:15.501Z,63.37
2024-03-28T00:18:15.538Z,65.45
2024-03-28T00:19:16.226Z,67.43
2024-03-28T00:20:16.608Z,66.24
2024-03-28T00:21:15.616Z,65.81
2024-03-28T00:22:15.640Z,65.74
2024-03-28T00:23:15.632Z,65.89
2024-03-28T00:24:15.618Z,64.97
2024-03-28T00:25:15.700Z,66.00
2024-03-28T00:26:15.613Z,65.02
2024-03-28T00:27:15.620Z,65.22
2024-03-28T00:28:15.660Z,64.89
2024-03-28T00:29:15.620Z,64.25
2024-03-28T00:30:15.608Z,63.76
2024-03-28T00:31:15.667Z,63.53
2024-03-28T00:32:15.706Z,63.16
2024-03-28T00:33:18.891Z,63.38
2024-03-28T00:34:15.804Z,62.90
2024-03-28T00:35:15.749Z,62.53
2024-03-28T00:36:15.743Z,62.20
2024-03-28T00:37:15.802Z,61.81
2024-03-28T00:38:15.770Z,61.65
2024-03-28T00:39:15.742Z,61.71
2024-03-28T00:40:15.759Z,61.38
2024-03-28T00:41:15.743Z,62.21
2024-03-28T00:42:15.752Z,63.22
2024-03-28T00:43:15.839Z,62.67
2024-03-28T00:44:15.782Z,62.75
2024-03-28T00:45:15.780Z,62.91
2024-03-28T00:46:15.795Z,62.31
2024-03-28T00:47:15.785Z,62.67
2024-03-28T00:48:15.763Z,62.74
2024-03-28T00:49:15.776Z,62.97
2024-03-28T00:50:15.785Z,62.93
2024-03-28T00:51:15.782Z,62.95
2024-03-28T00:52:15.800Z,62.61
2024-03-28T00:53:15.781Z,63.46
2024-03-28T00:54:15.798Z,63.10
2024-03-28T00:55:15.873Z,62.95
2024-03-28T00:56:15.804Z,62.43
2024-03-28T00:57:15.789Z,62.35
2024-03-28T00:58:15.814Z,62.21
2024-03-28T00:59:15.784Z,62.23
2024-03-28T01:00:15.805Z,62.40
2024-03-28T01:01:15.857Z,62.95
2024-03-28T01:02:15.823Z,63.15
2024-03-28T01:03:15.836Z,62.55
2024-03-28T01:04:15.885Z,62.84
2024-03-28T01:05:15.814Z,62.30
2024-03-28T01:06:15.825Z,62.25
2024-03-28T01:07:15.835Z,61.48
2024-03-28T01:08:15.824Z,61.70
2024-03-28T01:09:15.810Z,61.44
2024-03-28T01:10:15.850Z,61.48
2024-03-28T01:11:15.828Z,61.24
2024-03-28T01:12:15.819Z,61.33
2024-03-28T01:13:15.872Z,61.11
2024-03-28T01:14:15.803Z,61.41
2024-03-28T01:15:15.830Z,60.76
2024-03-28T01:16:15.850Z,61.33
2024-03-28T01:17:15.851Z,61.54
2024-03-28T01:18:15.827Z,60.92
2024-03-28T01:19:15.864Z,60.71
2024-03-28T01:20:15.817Z,61.69
2024-03-28T01:21:15.855Z,63.73
2024-03-28T01:22:15.866Z,66.53
2024-03-28T01:23:15.839Z,67.51
2024-03-28T01:24:15.828Z,67.64
2024-03-28T01:25:15.872Z,66.51
2024-03-28T01:26:15.849Z,65.62
2024-03-28T01:27:15.829Z,65.45
2024-03-28T01:28:15.860Z,65.45
2024-03-28T01:29:15.851Z,64.54
2024-03-28T01:30:15.845Z,63.77
2024-03-28T01:31:15.881Z,63.24
2024-03-28T01:32:15.853Z,63.00
2024-03-28T01:33:15.858Z,62.90
2024-03-28T01:34:15.950Z,62.54
2024-03-28T01:35:15.983Z,62.66
2024-03-28T01:36:16.013Z,62.80
2024-03-28T01:37:16.035Z,62.78
2024-03-28T01:38:16.102Z,62.73
2024-03-28T01:39:16.113Z,63.09
2024-03-28T01:40:16.187Z,63.16
2024-03-28T01:41:16.185Z,63.80
2024-03-28T01:42:16.220Z,65.83
2024-03-28T01:43:16.326Z,66.09
2024-03-28T01:44:16.305Z,66.23
2024-03-28T01:45:16.474Z,65.55
2024-03-28T01:46:20.035Z,64.78
2024-03-28T01:47:35.512Z,64.61
2024-03-28T01:48:17.604Z,64.59
2024-03-28T01:49:16.551Z,63.72
2024-03-28T01:50:16.546Z,63.49
2024-03-28T01:51:16.566Z,63.31
2024-03-28T01:52:16.591Z,63.61
2024-03-28T01:53:16.565Z,63.50
2024-03-28T01:54:16.647Z,63.45
2024-03-28T01:55:16.590Z,63.69
2024-03-28T01:56:16.580Z,64.00
2024-03-28T01:57:16.545Z,63.86
2024-03-28T01:58:16.572Z,64.00
2024-03-28T01:59:16.587Z,64.01
2024-03-28T02:00:16.561Z,63.86
2024-03-28T02:01:16.604Z,64.03
2024-03-28T02:02:16.589Z,64.01
2024-03-28T02:03:16.595Z,63.75
2024-03-28T02:04:16.637Z,63.67
2024-03-28T02:05:16.592Z,63.67
2024-03-28T02:06:16.576Z,63.48
2024-03-28T02:07:16.621Z,63.52
2024-03-28T02:08:16.598Z,63.52
2024-03-28T02:09:16.592Z,63.88
2024-03-28T02:10:16.637Z,64.10
2024-03-28T02:11:16.616Z,64.46
2024-03-28T02:12:16.604Z,64.09
2024-03-28T02:13:16.617Z,63.88
2024-03-28T02:14:16.596Z,63.95
2024-03-28T02:15:16.594Z,63.99
2024-03-28T02:16:16.612Z,63.80
2024-03-28T02:17:16.608Z,63.55
2024-03-28T02:18:16.610Z,64.20
2024-03-28T02:19:16.635Z,64.18
2024-03-28T02:20:16.639Z,65.07
2024-03-28T02:21:16.633Z,65.87
2024-03-28T02:22:16.664Z,66.63
2024-03-28T02:23:16.604Z,67.27
2024-03-28T02:24:16.617Z,66.51
2024-03-28T02:25:16.695Z,66.63
2024-03-28T02:26:16.718Z,66.49
2024-03-28T02:27:16.727Z,68.57
2024-03-28T02:28:16.832Z,67.95
2024-03-28T02:29:16.852Z,67.78
2024-03-28T02:30:16.894Z,68.41
2024-03-28T02:31:16.990Z,67.55
2024-03-28T02:32:16.994Z,68.02
2024-03-28T02:33:17.057Z,67.69
2024-03-28T02:34:17.128Z,67.18
2024-03-28T02:35:17.138Z,67.28
2024-03-28T02:36:17.140Z,67.30
2024-03-28T02:37:17.177Z,67.93
2024-03-28T02:38:17.252Z,68.21
2024-03-28T02:39:17.316Z,69.03
2024-03-28T02:40:17.353Z,69.21
2024-03-28T02:41:17.399Z,68.53
2024-03-28T02:42:17.428Z,68.39
2024-03-28T02:43:17.459Z,68.05
2024-03-28T02:44:17.497Z,67.34
2024-03-28T02:45:17.523Z,67.81
2024-03-28T02:46:17.576Z,67.63
2024-03-28T02:47:17.606Z,67.71
2024-03-28T02:48:17.674Z,66.92
2024-03-28T02:49:17.694Z,66.73
2024-03-28T02:50:17.752Z,66.75
2024-03-28T02:51:17.768Z,67.04
2024-03-28T02:52:17.844Z,66.67
2024-03-28T02:53:17.853Z,66.87
2024-03-28T02:54:17.866Z,66.76
2024-03-28T02:55:17.917Z,66.75
2024-03-28T02:56:17.963Z,67.06
2024-03-28T02:57:18.030Z,67.18
2024-03-28T02:58:18.054Z,67.40
2024-03-28T02:59:18.099Z,67.16
2024-03-28T03:00:18.167Z,67.04
2024-03-28T03:01:18.221Z,67.32
2024-03-28T03:02:18.213Z,67.59
2024-03-28T03:03:18.259Z,67.27
2024-03-28T03:04:18.342Z,67.05
2024-03-28T03:05:18.351Z,67.48
2024-03-28T03:06:18.380Z,67.76
2024-03-28T03:07:18.464Z,68.64
2024-03-28T03:08:18.493Z,67.52
2024-03-28T03:09:18.510Z,67.60
2024-03-28T03:10:18.597Z,67.78
2024-03-28T03:11:18.649Z,68.22
2024-03-28T03:12:18.683Z,68.13
2024-03-28T03:13:18.728Z,68.18
2024-03-28T03:14:18.799Z,68.73
2024-03-28T03:15:18.813Z,68.13
2024-03-28T03:16:18.893Z,69.23
2024-03-28T03:17:18.913Z,68.75
2024-03-28T03:18:18.948Z,68.10
2024-03-28T03:19:18.998Z,68.51
2024-03-28T03:20:19.044Z,67.38
2024-03-28T03:21:19.088Z,67.29
2024-03-28T03:22:19.100Z,68.51
2024-03-28T03:23:19.155Z,69.86
2024-03-28T03:24:19.242Z,69.91
2024-03-28T03:25:19.335Z,69.91
2024-03-28T03:26:19.319Z,69.98
2024-03-28T03:27:19.366Z,69.62
2024-03-28T03:28:19.445Z,69.05
2024-03-28T03:29:19.442Z,69.89
2024-03-28T03:30:19.464Z,70.52
2024-03-28T03:31:19.644Z,70.93
2024-03-28T03:32:19.622Z,72.19
2024-03-28T03:33:19.642Z,73.93
2024-03-28T03:34:19.732Z,73.68
2024-03-28T03:35:19.748Z,73.51
2024-03-28T03:36:19.774Z,73.73
2024-03-28T03:37:19.784Z,73.17
2024-03-28T03:38:19.836Z,73.01
2024-03-28T03:39:19.864Z,71.73
2024-03-28T03:40:19.937Z,69.65
2024-03-28T03:41:19.956Z,68.92
2024-03-28T03:42:19.998Z,70.80
2024-03-28T03:43:20.050Z,72.74
2024-03-28T03:44:20.045Z,73.36
2024-03-28T03:45:20.117Z,74.63
2024-03-28T03:46:20.172Z,74.09
2024-03-28T03:47:20.161Z,73.89
2024-03-28T03:48:20.191Z,73.53
2024-03-28T03:49:20.240Z,74.13
2024-03-28T03:50:20.241Z,72.96
2024-03-28T03:51:20.287Z,73.05
2024-03-28T03:52:20.386Z,72.50
2024-03-28T03:53:20.420Z,71.63
2024-03-28T03:54:20.448Z,71.55
2024-03-28T03:55:20.514Z,72.32
2024-03-28T03:56:20.515Z,72.33
2024-03-28T03:57:20.591Z,72.07
2024-03-28T03:58:20.698Z,71.65
2024-03-28T03:59:20.719Z,70.37
2024-03-28T04:00:20.740Z,70.87
2024-03-28T04:01:20.792Z,70.76
2024-03-28T04:02:20.814Z,70.35
2024-03-28T04:03:20.855Z,70.23
2024-03-28T04:04:20.913Z,70.11
2024-03-28T04:05:20.950Z,71.18
2024-03-28T04:06:20.993Z,70.75
2024-03-28T04:07:21.061Z,70.67
2024-03-28T04:08:21.068Z,71.96
2024-03-28T04:09:21.138Z,73.08
2024-03-28T04:10:21.181Z,72.20
2024-03-28T04:11:21.190Z,72.19
2024-03-28T04:12:21.238Z,72.44
2024-03-28T04:13:21.280Z,72.37
2024-03-28T04:14:21.315Z,72.22
2024-03-28T04:15:21.271Z,73.18
2024-03-28T04:16:21.392Z,72.24
2024-03-28T04:17:21.361Z,72.30
2024-03-28T04:18:21.435Z,72.58
2024-03-28T04:19:21.480Z,72.70
2024-03-28T04:20:21.491Z,72.70
2024-03-28T04:21:21.553Z,72.77
2024-03-28T04:22:21.585Z,72.62
2024-03-28T04:23:21.598Z,72.28
2024-03-28T04:24:21.636Z,72.76
2024-03-28T04:25:21.751Z,72.66
2024-03-28T04:26:21.748Z,72.71
2024-03-28T04:27:21.809Z,72.49
2024-03-28T04:28:21.871Z,72.91
2024-03-28T04:29:21.867Z,72.81
2024-03-28T04:30:21.886Z,72.74
2024-03-28T04:31:21.974Z,72.15
2024-03-28T04:32:21.965Z,71.24
2024-03-28T04:33:22.056Z,71.80
2024-03-28T04:34:22.078Z,71.23
2024-03-28T04:35:22.097Z,70.76
2024-03-28T04:36:22.171Z,70.00
2024-03-28T04:37:22.225Z,69.68
2024-03-28T04:38:22.264Z,70.10
2024-03-28T04:39:22.247Z,71.07
2024-03-28T04:40:22.323Z,71.73
2024-03-28T04:41:22.297Z,71.25
2024-03-28T04:42:22.335Z,71.20
2024-03-28T04:43:22.396Z,72.87
2024-03-28T04:44:22.407Z,72.46
2024-03-28T04:45:22.520Z,72.57
2024-03-28T04:46:22.522Z,72.63
2024-03-28T04:47:22.527Z,73.37
2024-03-28T04:48:22.577Z,73.41
2024-03-28T04:49:22.676Z,74.04
2024-03-28T04:50:22.617Z,74.18
2024-03-28T04:51:22.664Z,74.34
2024-03-28T04:52:22.669Z,74.88
2024-03-28T04:53:22.707Z,75.99
2024-03-28T04:54:22.789Z,75.23
2024-03-28T04:55:24.546Z,75.35
2024-03-28T04:56:22.821Z,74.92
2024-03-28T04:57:30.353Z,74.98
2024-03-28T04:58:30.376Z,74.42
2024-03-28T04:59:30.541Z,73.58
2024-03-28T05:00:30.660Z,73.23
2024-03-28T05:01:30.782Z,73.74
2024-03-28T05:02:30.968Z,73.57
2024-03-28T05:03:31.133Z,73.51
2024-03-28T05:04:31.237Z,73.25
2024-03-28T05:05:31.350Z,72.86
2024-03-28T05:06:31.547Z,72.62
2024-03-28T05:07:31.707Z,72.31
2024-03-28T05:08:31.914Z,72.11
2024-03-28T05:09:31.885Z,71.40
2024-03-28T05:10:31.927Z,71.31
2024-03-28T05:11:32.005Z,71.84
2024-03-28T05:12:31.901Z,71.96
2024-03-28T05:13:31.911Z,71.55
2024-03-28T05:14:31.912Z,71.49
2024-03-28T05:15:31.915Z,71.24
2024-03-28T05:16:31.939Z,72.42
2024-03-28T05:17:31.925Z,71.67
2024-03-28T05:18:31.941Z,71.86
2024-03-28T05:19:31.915Z,71.88
2024-03-28T05:20:31.917Z,71.95
2024-03-28T05:21:31.908Z,72.23
2024-03-28T05:22:31.931Z,72.01
2024-03-28T05:23:31.916Z,71.76
2024-03-28T05:24:31.933Z,71.98
2024-03-28T05:25:31.928Z,73.18
2024-03-28T05:26:31.978Z,73.12
2024-03-28T05:27:31.991Z,72.44
2024-03-28T05:28:32.104Z,72.47
2024-03-28T05:29:32.158Z,72.44
2024-03-28T05:30:32.146Z,71.99
2024-03-28T05:31:32.181Z,71.85
2024-03-28T05:32:32.276Z,71.71
2024-03-28T05:33:32.286Z,71.48
2024-03-28T05:34:32.339Z,71.18
2024-03-28T05:35:32.346Z,70.31
2024-03-28T05:36:32.387Z,71.10
2024-03-28T05:37:32.457Z,71.36
2024-03-28T05:38:32.490Z,71.23
2024-03-28T05:39:32.576Z,70.88
2024-03-28T05:40:32.595Z,71.03
2024-03-28T05:41:32.621Z,70.00
2024-03-28T05:42:32.660Z,70.09
2024-03-28T05:43:32.709Z,70.17
2024-03-28T05:44:32.729Z,69.86
2024-03-28T05:45:32.779Z,69.55
2024-03-28T05:46:32.863Z,69.47
2024-03-28T05:47:32.860Z,69.28
2024-03-28T05:48:32.936Z,69.14
2024-03-28T05:49:32.961Z,69.69
2024-03-28T05:50:32.999Z,70.13
2024-03-28T05:51:33.081Z,71.37
2024-03-28T05:52:33.076Z,70.09
2024-03-28T05:53:33.133Z,69.63
2024-03-28T05:54:33.162Z,70.23
2024-03-28T05:55:33.333Z,70.51
2024-03-28T05:56:33.291Z,70.07
2024-03-28T05:57:33.362Z,70.00
2024-03-28T05:58:33.347Z,69.69
2024-03-28T05:59:33.443Z,69.45
2024-03-28T06:00:33.495Z,70.05
2024-03-28T06:01:33.574Z,70.42
2024-03-28T06:02:33.493Z,70.52
2024-03-28T06:03:33.588Z,70.22
2024-03-28T06:04:33.620Z,69.95
2024-03-28T06:05:33.666Z,70.08
2024-03-28T06:06:33.693Z,70.76
2024-03-28T06:07:33.710Z,70.48
2024-03-28T06:08:33.744Z,70.08
2024-03-28T06:09:33.793Z,69.79
2024-03-28T06:10:33.867Z,69.48
2024-03-28T06:11:33.873Z,70.09
2024-03-28T06:12:33.927Z,70.20
2024-03-28T06:13:33.924Z,69.68
2024-03-28T06:14:33.950Z,69.68
2024-03-28T06:15:34.030Z,69.66
2024-03-28T06:16:34.429Z,69.92
2024-03-28T06:17:34.074Z,69.52
2024-03-28T06:18:34.096Z,69.45
2024-03-28T06:19:34.161Z,69.67
2024-03-28T06:20:34.200Z,69.52
2024-03-28T06:21:34.275Z,70.05
2024-03-28T06:22:34.371Z,69.40
2024-03-28T06:23:34.272Z,70.36
2024-03-28T06:24:34.315Z,69.15
2024-03-28T06:25:34.382Z,69.40
2024-03-28T06:26:34.474Z,68.47
2024-03-28T06:27:34.497Z,68.48
2024-03-28T06:28:34.469Z,68.59
2024-03-28T06:29:34.543Z,69.27
2024-03-28T06:30:34.599Z,69.17
2024-03-28T06:31:34.634Z,68.56
2024-03-28T06:32:34.731Z,68.80
2024-03-28T06:33:34.754Z,68.69
2024-03-28T06:34:34.800Z,69.06
2024-03-28T06:35:34.792Z,69.20
2024-03-28T06:36:34.837Z,70.85
2024-03-28T06:37:34.871Z,71.38
2024-03-28T06:38:34.912Z,72.03
2024-03-28T06:39:34.985Z,72.28
2024-03-28T06:40:34.952Z,72.55
2024-03-28T06:41:35.011Z,72.06
2024-03-28T06:42:35.142Z,71.33
2024-03-28T06:43:35.068Z,71.19
2024-03-28T06:44:35.167Z,71.03
2024-03-28T06:45:35.173Z,70.98
2024-03-28T06:46:35.199Z,70.55
2024-03-28T06:47:35.239Z,71.93
2024-03-28T06:48:35.281Z,71.19
2024-03-28T06:49:35.331Z,70.34
2024-03-28T06:50:35.358Z,69.82
2024-03-28T06:51:35.398Z,69.35
2024-03-28T06:52:35.489Z,69.67
2024-03-28T06:53:35.534Z,69.00
2024-03-28T06:54:35.568Z,68.67
2024-03-28T06:55:35.599Z,68.62
2024-03-28T06:56:35.643Z,67.92
2024-03-28T06:57:35.668Z,66.82
2024-03-28T06:58:35.680Z,65.91
2024-03-28T06:59:35.726Z,66.22
2024-03-28T07:00:35.780Z,67.65
2024-03-28T07:01:35.828Z,67.59
2024-03-28T07:02:35.887Z,66.27
2024-03-28T07:03:35.896Z,66.35
2024-03-28T07:04:35.927Z,67.53
2024-03-28T07:05:35.962Z,67.17
2024-03-28T07:06:36.009Z,68.38
2024-03-28T07:07:36.040Z,67.51
2024-03-28T07:08:36.112Z,66.52
2024-03-28T07:09:36.136Z,66.98
2024-03-28T07:10:36.197Z,66.85
2024-03-28T07:11:36.258Z,66.50
2024-03-28T07:12:36.267Z,66.88
2024-03-28T07:13:36.316Z,66.46
2024-03-28T07:14:36.350Z,66.68
2024-03-28T07:15:36.393Z,65.75
2024-03-28T07:16:36.439Z,65.89
2024-03-28T07:17:36.478Z,65.85
2024-03-28T07:18:36.573Z,60.30
2024-03-28T07:19:36.556Z,58.21
2024-03-28T07:20:36.612Z,54.81
2024-03-28T07:21:36.617Z,57.05
2024-03-28T07:22:36.673Z,62.83
2024-03-28T07:23:36.706Z,61.04
2024-03-28T07:24:36.761Z,52.03
2024-03-28T07:25:36.778Z,53.38
2024-03-28T07:26:37.025Z,54.18
2024-03-28T07:27:36.859Z,56.69
2024-03-28T07:28:36.920Z,60.12
2024-03-28T07:29:36.977Z,60.19
2024-03-28T07:30:37.045Z,53.24
2024-03-28T07:31:37.039Z,45.78
2024-03-28T07:32:37.090Z,47.31
2024-03-28T07:33:37.138Z,45.26
2024-03-28T07:34:37.151Z,41.62
2024-03-28T07:35:37.205Z,41.75
2024-03-28T07:36:37.229Z,43.26
2024-03-28T07:37:37.279Z,42.07
2024-03-28T07:38:37.325Z,40.52
2024-03-28T07:39:37.356Z,39.06
2024-03-28T07:40:37.405Z,39.89
2024-03-28T07:41:37.420Z,40.60
2024-03-28T07:42:37.454Z,40.29
2024-03-28T07:43:37.519Z,39.13
2024-03-28T07:44:37.531Z,39.46
2024-03-28T07:45:37.595Z,39.41
2024-03-28T07:46:37.609Z,38.99
2024-03-28T07:47:37.694Z,39.12
2024-03-28T07:48:37.677Z,37.82
2024-03-28T07:49:37.708Z,39.87
2024-03-28T07:50:37.738Z,41.98
2024-03-28T07:51:37.813Z,39.75
2024-03-28T07:52:37.887Z,39.44
2024-03-28T07:53:37.904Z,37.34
2024-03-28T07:54:37.930Z,39.06
2024-03-28T07:55:37.960Z,37.37
2024-03-28T07:56:38.041Z,37.17
2024-03-28T07:57:38.058Z,37.41
2024-03-28T07:58:38.143Z,37.18
2024-03-28T07:59:38.164Z,37.71
2024-03-28T08:00:38.177Z,37.48
2024-03-28T08:01:38.250Z,36.95
2024-03-28T08:02:38.280Z,36.18
2024-03-28T08:03:39.554Z,35.95
2024-03-28T08:04:38.371Z,36.51
2024-03-28T08:05:38.406Z,36.31
2024-03-28T08:06:38.456Z,37.52
2024-03-28T08:07:38.502Z,37.65
2024-03-28T08:08:38.558Z,35.06
2024-03-28T08:09:38.593Z,35.54
2024-03-28T08:10:38.629Z,35.14
2024-03-28T08:11:38.693Z,35.08
2024-03-28T08:12:38.737Z,35.30
2024-03-28T08:13:38.757Z,35.75
2024-03-28T08:14:38.798Z,35.24
2024-03-28T08:15:38.880Z,35.66
2024-03-28T08:16:38.934Z,35.26
2024-03-28T08:17:38.954Z,36.14
2024-03-28T08:18:38.968Z,36.25
2024-03-28T08:19:39.009Z,35.45
2024-03-28T08:20:39.078Z,37.01
2024-03-28T08:21:39.136Z,36.88
2024-03-28T08:22:39.165Z,36.83
2024-03-28T08:23:39.195Z,37.32
2024-03-28T08:24:39.243Z,36.77
2024-03-28T08:25:39.313Z,36.38
2024-03-28T08:26:39.322Z,36.93
2024-03-28T08:27:39.350Z,36.60
2024-03-28T08:28:39.392Z,36.28
2024-03-28T08:29:39.438Z,35.67
2024-03-28T08:30:39.483Z,35.85
2024-03-28T08:31:39.499Z,35.31
2024-03-28T08:32:39.567Z,36.08
2024-03-28T08:33:39.604Z,35.98
2024-03-28T08:34:39.622Z,36.79
2024-03-28T08:35:39.695Z,35.84
2024-03-28T08:36:39.728Z,35.68
2024-03-28T08:37:39.763Z,36.09
2024-03-28T08:38:39.818Z,34.99
2024-03-28T08:39:39.836Z,35.28
2024-03-28T08:40:39.862Z,35.84
2024-03-28T08:41:39.934Z,36.13
2024-03-28T08:42:39.974Z,36.11
2024-03-28T08:43:39.999Z,35.24
2024-03-28T08:44:40.053Z,35.83
2024-03-28T08:45:40.103Z,35.60
2024-03-28T08:46:40.130Z,36.24
2024-03-28T08:47:40.129Z,35.47
2024-03-28T08:48:40.180Z,35.10
2024-03-28T08:49:40.229Z,34.12
2024-03-28T08:50:40.284Z,34.09
2024-03-28T08:51:40.319Z,34.45
2024-03-28T08:52:40.358Z,34.86
2024-03-28T08:53:40.383Z,34.43
2024-03-28T08:54:40.433Z,35.32
2024-03-28T08:55:40.463Z,35.01
2024-03-28T08:56:40.512Z,35.47
2024-03-28T08:57:40.580Z,35.10
2024-03-28T08:58:40.649Z,34.75
2024-03-28T08:59:40.656Z,34.59
2024-03-28T09:00:40.715Z,34.86
2024-03-28T09:01:40.778Z,34.54
2024-03-28T09:02:40.943Z,34.31
2024-03-28T09:03:40.861Z,34.18
2024-03-28T09:04:40.910Z,34.50
2024-03-28T09:05:40.934Z,33.75
2024-03-28T09:06:40.967Z,34.30
2024-03-28T09:07:41.000Z,34.63
2024-03-28T09:08:41.048Z,35.01
2024-03-28T09:09:41.067Z,35.24
2024-03-28T09:10:41.156Z,35.51
2024-03-28T09:11:41.195Z,36.18
2024-03-28T09:12:41.197Z,35.71
2024-03-28T09:13:41.254Z,35.82
2024-03-28T09:14:41.293Z,35.02
2024-03-28T09:15:41.380Z,35.07
2024-03-28T09:16:41.406Z,36.11
2024-03-28T09:17:41.443Z,36.14
2024-03-28T09:18:41.478Z,36.28
2024-03-28T09:19:41.528Z,35.22
2024-03-28T09:20:41.582Z,35.27
2024-03-28T09:21:41.600Z,34.59
2024-03-28T09:22:41.652Z,34.75
2024-03-28T09:23:41.656Z,35.15
2024-03-28T09:24:41.694Z,35.71
2024-03-28T09:25:41.729Z,34.95
2024-03-28T09:26:44.786Z,34.46
2024-03-28T09:27:41.792Z,35.37
2024-03-28T09:28:41.822Z,35.27
2024-03-28T09:29:41.820Z,33.95
2024-03-28T09:30:41.812Z,34.47
2024-03-28T09:31:41.842Z,35.25
2024-03-28T09:32:41.829Z,34.86
2024-03-28T09:33:41.803Z,35.43
2024-03-28T09:34:41.823Z,35.82
2024-03-28T09:35:41.831Z,35.74
2024-03-28T09:36:41.836Z,35.14
2024-03-28T09:37:41.808Z,35.17
2024-03-28T09:38:41.823Z,35.67
2024-03-28T09:39:41.820Z,35.88
2024-03-28T09:40:41.824Z,35.28
2024-03-28T09:41:41.842Z,35.08
2024-03-28T09:42:41.839Z,35.04
2024-03-28T09:43:41.835Z,35.79
2024-03-28T09:44:41.823Z,36.06
2024-03-28T09:45:41.825Z,35.67
2024-03-28T09:46:41.829Z,35.56
2024-03-28T09:47:41.889Z,35.47
2024-03-28T09:48:41.839Z,34.76
2024-03-28T09:49:41.835Z,35.62
2024-03-28T09:50:41.843Z,35.20
2024-03-28T09:51:41.843Z,36.08
2024-03-28T09:52:41.834Z,36.65
2024-03-28T09:53:41.841Z,36.39
2024-03-28T09:54:41.857Z,36.82
2024-03-28T09:55:41.872Z,36.53
2024-03-28T09:56:41.846Z,36.62
2024-03-28T09:57:41.865Z,36.73
2024-03-28T09:58:41.843Z,36.49
2024-03-28T09:59:41.867Z,36.74
2024-03-28T10:00:41.888Z,36.53
2024-03-28T10:01:41.849Z,36.94
2024-03-28T10:02:41.861Z,36.81
2024-03-28T10:03:41.886Z,37.15
2024-03-28T10:04:41.862Z,36.28
2024-03-28T10:05:41.880Z,36.05
2024-03-28T10:06:41.847Z,36.97
2024-03-28T10:07:41.883Z,36.95
2024-03-28T10:08:41.882Z,36.17
2024-03-28T10:09:41.843Z,35.86
2024-03-28T10:10:41.864Z,35.90
2024-03-28T10:11:41.848Z,36.50
2024-03-28T10:12:41.848Z,37.13
2024-03-28T10:13:41.871Z,36.10
2024-03-28T10:14:41.870Z,35.71
2024-03-28T10:15:41.875Z,35.98
2024-03-28T10:16:41.884Z,36.86
2024-03-28T10:17:41.911Z,36.96
2024-03-28T10:18:41.874Z,37.80
2024-03-28T10:19:41.903Z,37.09
2024-03-28T10:20:41.913Z,37.71
2024-03-28T10:21:41.941Z,36.77
2024-03-28T10:22:41.895Z,37.24
2024-03-28T10:23:41.887Z,37.14
2024-03-28T10:24:41.891Z,37.36
2024-03-28T10:25:41.920Z,37.75
2024-03-28T10:26:41.897Z,36.21
2024-03-28T10:27:41.903Z,38.22
2024-03-28T10:28:41.930Z,38.14
2024-03-28T10:29:41.914Z,36.21
2024-03-28T10:30:41.926Z,37.13
2024-03-28T10:31:41.928Z,36.69
2024-03-28T10:32:41.912Z,37.92
2024-03-28T10:33:41.936Z,37.35
2024-03-28T10:34:42.490Z,37.36
2024-03-28T10:35:43.009Z,36.65
2024-03-28T10:36:42.062Z,37.40
2024-03-28T10:37:54.708Z,37.52
2024-03-28T10:38:43.128Z,37.26
2024-03-28T10:39:42.117Z,37.42
2024-03-28T10:40:42.161Z,36.35
2024-03-28T10:41:42.132Z,35.71
2024-03-28T10:42:42.112Z,35.71
2024-03-28T10:43:42.119Z,37.09
2024-03-28T10:44:42.113Z,37.18
2024-03-28T10:45:42.122Z,36.54
2024-03-28T10:46:42.124Z,36.15
2024-03-28T10:47:42.136Z,37.05
2024-03-28T10:48:42.139Z,36.74
2024-03-28T10:49:44.124Z,36.65
2024-03-28T10:50:42.164Z,37.86
2024-03-28T10:51:42.154Z,36.53
2024-03-28T10:52:42.145Z,35.36
2024-03-28T10:53:42.134Z,34.70
2024-03-28T10:54:42.142Z,34.89
2024-03-28T10:55:42.159Z,34.54
2024-03-28T10:56:42.193Z,34.92
2024-03-28T10:57:42.157Z,34.56
2024-03-28T10:58:42.151Z,34.86
2024-03-28T10:59:42.145Z,33.63
2024-03-28T11:00:42.208Z,33.06
2024-03-28T11:01:42.180Z,33.57
2024-03-28T11:02:42.178Z,33.89
2024-03-28T11:03:42.170Z,34.54
2024-03-28T11:04:42.166Z,35.18
2024-03-28T11:05:42.186Z,34.86
2024-03-28T11:06:42.177Z,34.65
2024-03-28T11:07:42.182Z,35.01
2024-03-28T11:08:42.205Z,34.93
2024-03-28T11:09:42.181Z,35.51
2024-03-28T11:10:42.180Z,35.06
2024-03-28T11:11:42.183Z,34.72
2024-03-28T11:12:42.186Z,34.86
2024-03-28T11:13:42.186Z,34.56
2024-03-28T11:14:42.198Z,34.13
2024-03-28T11:15:42.205Z,34.59
2024-03-28T11:16:42.210Z,33.68
2024-03-28T11:17:42.220Z,33.51
2024-03-28T11:18:42.249Z,33.73
2024-03-28T11:19:42.300Z,34.53
2024-03-28T11:20:42.338Z,34.21
2024-03-28T11:21:42.336Z,33.91
2024-03-28T11:22:42.397Z,34.42
2024-03-28T11:23:42.390Z,34.58
2024-03-28T11:24:42.460Z,34.37
2024-03-28T11:25:42.495Z,34.71
2024-03-28T11:26:42.521Z,34.61
2024-03-28T11:27:42.528Z,34.28
2024-03-28T11:28:42.565Z,34.21
2024-03-28T11:29:42.599Z,34.24
2024-03-28T11:30:42.649Z,34.46
2024-03-28T11:31:45.460Z,33.89
2024-03-28T11:32:42.741Z,34.71
2024-03-28T11:33:42.658Z,35.70
2024-03-28T11:34:42.667Z,35.03
2024-03-28T11:35:42.678Z,35.66
2024-03-28T11:36:42.716Z,35.47
2024-03-28T11:37:42.742Z,36.65
2024-03-28T11:38:42.708Z,36.78
2024-03-28T11:39:42.697Z,36.39
2024-03-28T11:40:42.703Z,36.08
2024-03-28T11:41:42.701Z,34.75
2024-03-28T11:42:46.742Z,35.21
2024-03-28T11:43:42.712Z,34.56
2024-03-28T11:44:42.696Z,34.59
2024-03-28T11:45:42.693Z,34.66
2024-03-28T11:46:42.710Z,34.57
2024-03-28T11:47:42.706Z,34.21
2024-03-28T11:48:42.715Z,34.74
2024-03-28T11:49:42.734Z,34.01
2024-03-28T11:50:42.705Z,34.24
2024-03-28T11:51:42.703Z,34.89
2024-03-28T11:52:42.694Z,34.06
2024-03-28T11:53:49.921Z,33.79
2024-03-28T11:54:43.723Z,33.89
2024-03-28T11:55:42.722Z,34.39
2024-03-28T11:56:42.757Z,34.29
2024-03-28T11:57:42.718Z,34.46
2024-03-28T11:58:42.722Z,35.60
2024-03-28T11:59:42.739Z,35.29
2024-03-28T12:00:42.718Z,34.60
2024-03-28T12:01:42.757Z,34.72
2024-03-28T12:02:42.738Z,33.53
2024-03-28T12:03:42.758Z,33.39
2024-03-28T12:04:42.757Z,33.34
2024-03-28T12:05:42.749Z,34.95
2024-03-28T12:06:42.770Z,35.36
2024-03-28T12:07:42.893Z,33.84
2024-03-28T12:08:43.094Z,34.22
2024-03-28T12:09:42.950Z,34.68
2024-03-28T12:10:43.053Z,35.12
2024-03-28T12:11:43.029Z,35.10
2024-03-28T12:12:43.106Z,35.11
2024-03-28T12:13:43.123Z,33.87
2024-03-28T12:14:43.183Z,33.09
2024-03-28T12:15:43.237Z,32.48
2024-03-28T12:16:44.021Z,32.62
2024-03-28T12:17:43.300Z,33.67
2024-03-28T12:18:43.338Z,34.91
2024-03-28T12:19:43.365Z,36.08
2024-03-28T12:20:43.391Z,36.89
2024-03-28T12:21:43.453Z,36.85
2024-03-28T12:22:43.487Z,37.02
2024-03-28T12:23:43.509Z,37.19
2024-03-28T12:24:43.561Z,36.02
2024-03-28T12:25:43.572Z,38.32
2024-03-28T12:26:43.561Z,38.29
2024-03-28T12:27:43.590Z,37.63
2024-03-28T12:28:43.634Z,38.39
2024-03-28T12:29:43.718Z,39.14
2024-03-28T12:30:43.731Z,39.16
2024-03-28T12:31:43.753Z,39.24
2024-03-28T12:32:43.849Z,39.26
2024-03-28T12:33:43.870Z,39.52
2024-03-28T12:34:43.922Z,40.27
2024-03-28T12:35:43.951Z,41.46
2024-03-28T12:36:44.007Z,42.01
2024-03-28T12:37:43.996Z,42.01
2024-03-28T12:38:44.042Z,41.87
2024-03-28T12:39:44.152Z,42.84
2024-03-28T12:40:44.180Z,42.94
2024-03-28T12:41:44.196Z,42.87
2024-03-28T12:42:44.222Z,42.68
2024-03-28T12:43:44.286Z,43.26
2024-03-28T12:44:44.320Z,43.63
2024-03-28T12:45:44.363Z,43.85
2024-03-28T12:46:44.392Z,44.29
2024-03-28T12:47:44.420Z,43.87
2024-03-28T12:48:44.537Z,44.62
2024-03-28T12:49:44.554Z,44.62
2024-03-28T12:50:44.557Z,44.62
2024-03-28T12:51:44.660Z,44.59
2024-03-28T12:52:44.644Z,44.94